createdAt,value
2023-04-11T00:01:29.625Z,98925.66
2023-04-11T00:03:57.824Z,98911.50
2023-04-11T00:06:26.012Z,98886.22
2023-04-11T00:08:54.010Z,98895.63
2023-04-11T00:11:21.796Z,98892.66
2023-04-11T00:13:49.233Z,98914.97
2023-04-11T00:16:19.505Z,98904.28
2023-04-11T00:18:47.353Z,98912.50
2023-04-11T00:21:14.817Z,98921.69
2023-04-11T00:23:43.343Z,98931.25
2023-04-11T00:26:10.729Z,98950.22
2023-04-11T00:28:40.586Z,98946.38
2023-04-11T00:31:08.385Z,98955.69
2023-04-11T00:33:38.645Z,98952.72
2023-04-11T00:36:08.282Z,98967.31
2023-04-11T00:38:36.197Z,98971.09
2023-04-11T00:41:03.602Z,98983.34
2023-04-11T00:43:30.980Z,99002.47
2023-04-11T00:45:58.569Z,99016.41
2023-04-11T00:48:28.263Z,99012.69
2023-04-11T00:50:57.118Z,99026.50
2023-04-11T00:53:25.026Z,99038.66
2023-04-11T00:55:52.790Z,99039.97
2023-04-11T00:58:20.532Z,99035.75
2023-04-11T01:00:49.772Z,99046.44
2023-04-11T01:03:22.002Z,99050.94
2023-04-11T01:05:53.994Z,99058.94
2023-04-11T01:08:24.017Z,99050.75
2023-04-11T01:10:51.418Z,99045.69
2023-04-11T01:13:19.348Z,99047.56
2023-04-11T01:15:47.078Z,99041.56
2023-04-11T01:18:15.383Z,99037.47
2023-04-11T01:20:43.031Z,99035.09
2023-04-11T01:23:12.100Z,99030.13
2023-04-11T01:25:40.969Z,99024.97
2023-04-11T01:28:11.801Z,99029.59
2023-04-11T01:30:39.206Z,99035.56
2023-04-11T01:33:07.319Z,99040.44
2023-04-11T01:35:35.059Z,99033.34
2023-04-11T01:38:03.427Z,99032.09
2023-04-11T01:40:32.557Z,99021.50
2023-04-11T01:43:04.109Z,99026.81
2023-04-11T01:45:34.726Z,99027.25
2023-04-11T01:48:07.001Z,99034.47
2023-04-11T01:50:34.718Z,99048.28
2023-04-11T01:53:02.527Z,99061.25
2023-04-11T01:55:29.904Z,99071.44
2023-04-11T01:57:57.295Z,99083.81
2023-04-11T02:00:26.066Z,99117.50
2023-04-11T02:02:53.508Z,99131.69
2023-04-11T02:05:22.081Z,99138.91
2023-04-11T02:07:49.466Z,99173.56
2023-04-11T02:10:16.935Z,99167.31
2023-04-11T02:12:44.298Z,99177.16
2023-04-11T02:15:12.039Z,99188.88
2023-04-11T02:17:45.066Z,99199.00
2023-04-11T02:20:13.468Z,99193.56
2023-04-11T02:22:41.475Z,99190.63
2023-04-11T02:25:10.803Z,99194.00
2023-04-11T02:27:38.207Z,99183.69
2023-04-11T02:30:06.720Z,99182.91
2023-04-11T02:32:35.183Z,99169.78
2023-04-11T02:35:04.847Z,99185.50
2023-04-11T02:37:32.255Z,99175.81
2023-04-11T02:39:59.659Z,99164.66
2023-04-11T02:42:27.047Z,99186.28
2023-04-11T02:44:55.160Z,99193.53
2023-04-11T02:47:22.543Z,99207.84
2023-04-11T02:49:49.959Z,99201.66
2023-04-11T02:52:18.944Z,99205.25
2023-04-11T02:54:47.097Z,99203.69
2023-04-11T02:57:14.474Z,99203.94
2023-04-11T02:59:41.832Z,99200.38
2023-04-11T03:02:11.859Z,99209.16
2023-04-11T03:04:39.314Z,99209.28
2023-04-11T03:07:11.048Z,99209.25
2023-04-11T03:09:39.929Z,99214.34
2023-04-11T03:12:07.645Z,99208.59
2023-04-11T03:14:35.044Z,99215.88
2023-04-11T03:17:02.409Z,99214.81
2023-04-11T03:19:30.068Z,99203.97
2023-04-11T03:21:57.432Z,99204.31
2023-04-11T03:24:24.792Z,99197.97
2023-04-11T03:26:53.507Z,99209.50
2023-04-11T03:29:22.087Z,99216.94
2023-04-11T03:31:49.553Z,99202.09
2023-04-11T03:34:17.965Z,99213.53
2023-04-11T03:36:45.372Z,99215.19
2023-04-11T03:39:12.728Z,99211.00
2023-04-11T03:41:40.235Z,99209.88
2023-04-11T03:44:08.980Z,99222.41
2023-04-11T03:46:36.672Z,99221.31
2023-04-11T03:49:04.440Z,99222.91
2023-04-11T03:51:32.620Z,99237.94
2023-04-11T03:54:00.164Z,99249.94
2023-04-11T03:56:28.298Z,99286.13
2023-04-11T03:58:55.898Z,99261.94
2023-04-11T04:01:24.802Z,99287.94
2023-04-11T04:03:52.320Z,99271.41
2023-04-11T04:06:20.030Z,99255.19
2023-04-11T04:08:47.612Z,99226.88
2023-04-11T04:11:17.208Z,99210.34
2023-04-11T04:13:46.161Z,99166.09
2023-04-11T04:16:13.877Z,99175.41
2023-04-11T04:18:42.821Z,99159.09
2023-04-11T04:21:10.949Z,99157.94
2023-04-11T04:23:47.536Z,99151.41
2023-04-11T04:26:16.903Z,99154.88
2023-04-11T04:28:47.339Z,99147.88
2023-04-11T04:31:19.195Z,99139.22
2023-04-11T04:33:49.553Z,99125.47
2023-04-11T04:36:17.676Z,99109.47
2023-04-11T04:38:45.380Z,99118.91
2023-04-11T04:41:15.825Z,99105.69
2023-04-11T04:43:43.471Z,99101.41
2023-04-11T04:46:11.335Z,99078.66
2023-04-11T04:48:38.925Z,99083.59
2023-04-11T04:51:10.826Z,99070.75
2023-04-11T04:53:46.198Z,99045.88
2023-04-11T04:56:13.568Z,99047.88
2023-04-11T04:58:41.174Z,99043.75
2023-04-11T05:01:09.103Z,99037.34
2023-04-11T05:03:38.577Z,99063.06
2023-04-11T05:06:07.477Z,99058.03
2023-04-11T05:08:36.204Z,99062.28
2023-04-11T05:11:03.582Z,99059.16
2023-04-11T05:13:34.790Z,99062.94
2023-04-11T05:16:02.278Z,99058.69
2023-04-11T05:18:31.011Z,99072.00
2023-04-11T05:20:58.389Z,99073.03
2023-04-11T05:23:26.762Z,99080.19
2023-04-11T05:25:55.520Z,99079.59
2023-04-11T05:28:23.027Z,99105.13
2023-04-11T05:30:50.455Z,99120.13
2023-04-11T05:33:17.849Z,99127.53
2023-04-11T05:35:45.401Z,99157.50
2023-04-11T05:38:12.798Z,99182.41
2023-04-11T05:40:40.359Z,99205.06
2023-04-11T05:43:11.336Z,99232.31
2023-04-11T05:45:42.078Z,99248.59
2023-04-11T05:48:09.625Z,99266.13
2023-04-11T05:50:37.413Z,99279.16
2023-04-11T05:53:04.908Z,99299.13
2023-04-11T05:55:32.279Z,99297.94
2023-04-11T05:57:59.772Z,99309.59
2023-04-11T06:00:31.165Z,99316.44
2023-04-11T06:03:01.811Z,99321.00
2023-04-11T06:05:31.490Z,99312.19
2023-04-11T06:07:59.887Z,99308.97
2023-04-11T06:10:27.724Z,99325.81
2023-04-11T06:12:55.372Z,99349.19
2023-04-11T06:15:23.456Z,99345.94
2023-04-11T06:17:52.285Z,99358.88
2023-04-11T06:20:20.294Z,99356.84
2023-04-11T06:22:51.111Z,99372.84
2023-04-11T06:25:19.808Z,99396.09
2023-04-11T06:27:48.199Z,99402.50
2023-04-11T06:30:16.276Z,99354.06
2023-04-11T06:32:43.711Z,99323.47
2023-04-11T06:35:12.472Z,99286.16
2023-04-11T06:37:42.526Z,99266.22
2023-04-11T06:40:11.093Z,99262.31
2023-04-11T06:42:38.479Z,99247.50
2023-04-11T06:45:06.976Z,99242.31
2023-04-11T06:47:34.529Z,99241.78
2023-04-11T06:50:02.062Z,99217.91
2023-04-11T06:52:31.243Z,99207.75
2023-04-11T06:54:58.694Z,99199.97
2023-04-11T06:57:28.055Z,99193.00
2023-04-11T06:59:55.874Z,99186.81
2023-04-11T07:02:25.755Z,99184.84
2023-04-11T07:04:53.354Z,99204.47
2023-04-11T07:07:20.812Z,99224.03
2023-04-11T07:09:49.584Z,99234.13
2023-04-11T07:12:16.986Z,99290.28
2023-04-11T07:14:44.463Z,99295.78
2023-04-11T07:17:11.970Z,99302.69
2023-04-11T07:19:39.397Z,99314.09
2023-04-11T07:22:06.775Z,99352.03
2023-04-11T07:24:34.148Z,99351.31
2023-04-11T07:27:03.011Z,99360.97
2023-04-11T07:29:31.022Z,99359.13
2023-04-11T07:31:58.509Z,99345.16
2023-04-11T07:34:26.345Z,99342.19
2023-04-11T07:36:57.738Z,99324.06
2023-04-11T07:39:25.363Z,99321.41
2023-04-11T07:41:55.021Z,99335.19
2023-04-11T07:44:31.313Z,99317.72
2023-04-11T07:46:59.257Z,99325.41
2023-04-11T07:49:26.705Z,99355.47
2023-04-11T07:51:55.851Z,99352.13
2023-04-11T07:54:25.119Z,99322.47
2023-04-11T07:56:52.866Z,99340.88
2023-04-11T07:59:20.279Z,99335.13
2023-04-11T08:01:58.987Z,99341.22
2023-04-11T08:04:26.551Z,99344.19
2023-04-11T08:06:55.889Z,99349.03
2023-04-11T08:09:23.595Z,99365.53
2023-04-11T08:11:50.976Z,99366.31
2023-04-11T08:14:31.392Z,99380.22
2023-04-11T08:17:09.944Z,99390.34
2023-04-11T08:19:42.157Z,99385.94
2023-04-11T08:22:09.560Z,99390.94
2023-04-11T08:24:36.925Z,99362.81
2023-04-11T08:27:22.370Z,99384.72
2023-04-11T08:29:49.759Z,99397.75
2023-04-11T08:32:18.787Z,99397.59
2023-04-11T08:34:46.175Z,99407.16
2023-04-11T08:37:13.571Z,99433.06
2023-04-11T08:39:41.453Z,99444.25
2023-04-11T08:42:21.650Z,99445.16
2023-04-11T08:44:53.581Z,99453.69
2023-04-11T08:47:22.600Z,99462.75
2023-04-11T08:49:51.002Z,99485.56
2023-04-11T08:52:19.194Z,99509.41
2023-04-11T08:54:52.890Z,99502.63
2023-04-11T08:57:25.921Z,99498.63
2023-04-11T08:59:55.102Z,99528.03
2023-04-11T09:02:24.074Z,99544.56
2023-04-11T09:04:51.716Z,99543.28
2023-04-11T09:07:19.526Z,99555.31
2023-04-11T09:09:47.945Z,99567.31
2023-04-11T09:12:22.484Z,99566.16
2023-04-11T09:14:49.927Z,99601.06
2023-04-11T09:17:17.500Z,99609.41
2023-04-11T09:19:48.862Z,99595.16
2023-04-11T09:22:16.818Z,99594.44
2023-04-11T09:24:44.225Z,99574.28
2023-04-11T09:27:13.399Z,99604.78
2023-04-11T09:29:42.319Z,99610.50
2023-04-11T09:32:30.576Z,99619.59
2023-04-11T09:35:16.978Z,99627.75
2023-04-11T09:37:47.168Z,99628.97
2023-04-11T09:40:16.544Z,99633.09
2023-04-11T09:42:44.633Z,99641.47
2023-04-11T09:45:20.626Z,99644.56
2023-04-11T09:47:49.294Z,99664.41
2023-04-11T09:50:18.687Z,99659.72
2023-04-11T09:52:46.791Z,99656.03
2023-04-11T09:55:16.251Z,99681.66
2023-04-11T09:57:47.450Z,99736.88
2023-04-11T10:00:16.928Z,99741.53
2023-04-11T10:02:46.093Z,99719.31
2023-04-11T10:05:15.747Z,99748.19
2023-04-11T10:07:48.972Z,99756.97
2023-04-11T10:10:19.829Z,99774.94
2023-04-11T10:12:48.168Z,99766.25
2023-04-11T10:15:16.391Z,99753.03
2023-04-11T10:17:44.644Z,99774.56
2023-04-11T10:20:44.831Z,99775.72
2023-04-11T10:23:14.209Z,99774.38
2023-04-11T10:25:52.926Z,99779.34
2023-04-11T10:28:34.697Z,99771.53
2023-04-11T10:31:13.928Z,99779.69
2023-04-11T10:34:12.544Z,99804.38
2023-04-11T10:37:04.426Z,99789.91
2023-04-11T10:40:09.760Z,99798.56
2023-04-11T10:42:39.767Z,99791.09
2023-04-11T10:45:18.705Z,99804.56
2023-04-11T10:48:07.209Z,99802.53
2023-04-11T10:50:40.788Z,99805.44
2023-04-11T10:53:11.072Z,99806.31
2023-04-11T10:55:48.483Z,99800.31
2023-04-11T10:58:19.503Z,99830.09
2023-04-11T11:01:25.734Z,99812.25
2023-04-11T11:04:00.735Z,99792.47
2023-04-11T11:06:29.200Z,99798.88
2023-04-11T11:08:57.750Z,99800.13
2023-04-11T11:11:26.998Z,99812.53
2023-04-11T11:13:56.484Z,99834.78
2023-04-11T11:16:25.539Z,99826.66
2023-04-11T11:18:54.269Z,99809.03
2023-04-11T11:21:28.404Z,99804.69
2023-04-11T11:23:58.223Z,99814.34
2023-04-11T11:26:38.048Z,99810.09
2023-04-11T11:29:05.900Z,99825.97
2023-04-11T11:31:37.695Z,99841.75
2023-04-11T11:34:22.313Z,99837.59
2023-04-11T11:36:52.606Z,99835.31
2023-04-11T11:39:21.972Z,99830.00
2023-04-11T11:41:53.321Z,99781.63
2023-04-11T11:44:24.688Z,99754.66
2023-04-11T11:47:02.401Z,99728.97
2023-04-11T11:49:44.195Z,99696.41
2023-04-11T11:52:11.790Z,99637.25
2023-04-11T11:54:46.262Z,99622.78
2023-04-11T11:57:22.585Z,99604.03
2023-04-11T11:59:54.012Z,99592.97
2023-04-11T12:02:23.099Z,99579.03
2023-04-11T12:04:51.192Z,99581.88
2023-04-11T12:07:22.176Z,99563.38
2023-04-11T12:09:50.744Z,99547.97
2023-04-11T12:12:19.700Z,99577.00
2023-04-11T12:14:53.576Z,99605.88
2023-04-11T12:17:22.431Z,99602.97
2023-04-11T12:19:50.084Z,99625.63
2023-04-11T12:22:17.685Z,99624.41
2023-04-11T12:24:45.717Z,99641.41
2023-04-11T12:27:13.439Z,99697.94
2023-04-11T12:29:44.340Z,99694.72
2023-04-11T12:32:11.864Z,99784.59
2023-04-11T12:34:39.231Z,99790.44
2023-04-11T12:37:06.757Z,99826.13
2023-04-11T12:39:34.192Z,99837.22
2023-04-11T12:42:01.661Z,99841.63
2023-04-11T12:44:29.100Z,99838.31
2023-04-11T12:46:57.842Z,99855.78
2023-04-11T12:49:25.407Z,99841.09
2023-04-11T12:51:52.788Z,99833.72
2023-04-11T12:54:20.270Z,99877.06
2023-04-11T12:56:48.929Z,99852.06
2023-04-11T12:59:16.791Z,99846.66
2023-04-11T13:01:46.968Z,99862.13
2023-04-11T13:04:15.853Z,99878.19
2023-04-11T13:06:43.523Z,99860.66
2023-04-11T13:09:13.432Z,99879.19
2023-04-11T13:11:41.424Z,99914.00
2023-04-11T13:14:08.884Z,99922.16
2023-04-11T13:16:36.980Z,99914.47
2023-04-11T13:19:04.393Z,99845.66
2023-04-11T13:21:33.443Z,99807.13
2023-04-11T13:24:00.818Z,99780.69
2023-04-11T13:26:30.044Z,99769.97
2023-04-11T13:28:57.807Z,99764.78
2023-04-11T13:31:27.432Z,99767.31
2023-04-11T13:33:54.964Z,99760.97
2023-04-11T13:36:22.428Z,99751.81
2023-04-11T13:38:51.947Z,99765.31
2023-04-11T13:41:19.420Z,99768.47
2023-04-11T13:43:46.874Z,99769.84
2023-04-11T13:46:16.101Z,99777.22
2023-04-11T13:48:43.586Z,99816.06
2023-04-11T13:51:11.416Z,99833.72
2023-04-11T13:53:40.227Z,99858.84
2023-04-11T13:56:10.445Z,99868.69
2023-04-11T13:58:38.969Z,99866.03
2023-04-11T14:01:07.166Z,99895.16
2023-04-11T14:03:36.584Z,99893.44
2023-04-11T14:06:04.321Z,99886.34
2023-04-11T14:08:31.852Z,99903.78
2023-04-11T14:10:59.210Z,99891.72
2023-04-11T14:13:27.933Z,99890.59
2023-04-11T14:18:28.774Z,99911.19
2023-04-11T14:20:58.260Z,99911.81
2023-04-11T14:23:28.675Z,99971.19
2023-04-11T14:25:56.788Z,99911.53
2023-04-11T14:28:26.540Z,99909.16
2023-04-11T14:30:56.460Z,99917.19
2023-04-11T14:33:24.175Z,99917.97
2023-04-11T14:35:51.990Z,99916.78
2023-04-11T14:38:19.378Z,99900.03
2023-04-11T14:40:46.768Z,99917.41
2023-04-11T14:43:14.378Z,99920.75
2023-04-11T14:45:41.838Z,99932.19
2023-04-11T14:48:10.868Z,99946.28
2023-04-11T14:50:38.333Z,99949.09
2023-04-11T14:53:05.779Z,99936.84
2023-04-11T14:55:33.179Z,99938.38
2023-04-11T14:58:02.798Z,99928.09
2023-04-11T15:00:35.219Z,99929.09
2023-04-11T15:03:04.435Z,99960.06
2023-04-11T15:05:33.258Z,99941.56
2023-04-11T15:08:00.833Z,99925.84
2023-04-11T15:10:28.214Z,99937.31
2023-04-11T15:12:56.991Z,99943.13
2023-04-11T15:15:24.670Z,99953.66
2023-04-11T15:18:23.969Z,99960.09
2023-04-11T15:20:53.278Z,99966.13
2023-04-11T15:23:21.496Z,99966.66
2023-04-11T15:25:54.082Z,99978.09
2023-04-11T15:28:21.577Z,99956.25
2023-04-11T15:30:50.889Z,99970.47
2023-04-11T15:33:19.033Z,99948.66
2023-04-11T15:35:47.240Z,99958.66
2023-04-11T15:38:16.348Z,99954.78
2023-04-11T15:40:43.860Z,99952.56
2023-04-11T15:43:11.494Z,99949.06
2023-04-11T15:45:39.987Z,99969.50
2023-04-11T15:48:07.645Z,99962.81
2023-04-11T15:50:35.023Z,99953.25
2023-04-11T15:53:02.412Z,99963.59
2023-04-11T15:55:31.631Z,99962.34
2023-04-11T15:57:59.000Z,99962.97
2023-04-11T16:00:27.224Z,99963.31
2023-04-11T16:02:55.712Z,99966.16
2023-04-11T16:05:23.445Z,99949.91
2023-04-11T16:07:50.907Z,99955.03
2023-04-11T16:10:18.922Z,99961.84
2023-04-11T16:12:47.651Z,99957.25
2023-04-11T16:15:15.297Z,99952.69
2023-04-11T16:17:46.810Z,99943.00
2023-04-11T16:20:18.387Z,99938.09
2023-04-11T16:22:46.629Z,99956.44
2023-04-11T16:25:15.718Z,99957.34
2023-04-11T16:27:43.089Z,99957.41
2023-04-11T16:30:12.483Z,99948.91
2023-04-11T16:32:39.885Z,99956.78
2023-04-11T16:35:08.187Z,99961.56
2023-04-11T16:37:35.725Z,99961.06
2023-04-11T16:40:07.934Z,99952.31
2023-04-11T16:42:35.290Z,99948.84
2023-04-11T16:45:02.671Z,99956.53
2023-04-11T16:49:59.243Z,99950.28
2023-04-11T16:52:26.652Z,99956.34
2023-04-11T16:54:54.075Z,99945.38
2023-04-11T16:57:21.668Z,99953.16
2023-04-11T16:59:49.062Z,99947.09
2023-04-11T17:02:16.963Z,99954.56
2023-04-11T17:04:45.774Z,99943.94
2023-04-11T17:07:13.172Z,99943.47
2023-04-11T17:09:41.378Z,99946.44
2023-04-11T17:12:08.753Z,99956.59
2023-04-11T17:14:37.285Z,99956.88
2023-04-11T17:17:06.663Z,99951.50
2023-04-11T17:19:34.066Z,99947.78
2023-04-11T17:22:02.897Z,99951.50
2023-04-11T17:24:30.809Z,99961.50
2023-04-11T17:26:58.199Z,99964.72
2023-04-11T17:29:25.641Z,99964.22
2023-04-11T17:31:52.991Z,99960.66
2023-04-11T17:34:20.561Z,99961.53
2023-04-11T17:36:47.958Z,99973.19
2023-04-11T17:39:17.626Z,99960.72
2023-04-11T17:41:45.552Z,99972.00
2023-04-11T17:44:13.130Z,99965.69
2023-04-11T17:46:40.921Z,99967.00
2023-04-11T17:49:08.344Z,99966.09
2023-04-11T17:51:43.012Z,99970.06
2023-04-11T17:54:17.669Z,99967.19
2023-04-11T17:56:46.847Z,99971.53
2023-04-11T17:59:16.900Z,99968.72
2023-04-11T18:01:47.290Z,99971.06
2023-04-11T18:04:15.333Z,99970.16
2023-04-11T18:06:46.087Z,99976.44
2023-04-11T18:09:13.474Z,99967.97
2023-04-11T18:11:43.770Z,99962.06
2023-04-11T18:14:11.503Z,99956.03
2023-04-11T18:16:40.286Z,99952.38
2023-04-11T18:19:07.768Z,99945.41
2023-04-11T18:21:35.126Z,99939.06
2023-04-11T18:24:02.642Z,99923.72
2023-04-11T18:26:31.281Z,99925.59
2023-04-11T18:29:00.960Z,99921.53
2023-04-11T18:31:28.386Z,99913.50
2023-04-11T18:33:56.221Z,99897.94
2023-04-11T18:36:24.435Z,99886.34
2023-04-11T18:38:52.493Z,99884.72
2023-04-11T18:41:20.263Z,99877.00
2023-04-11T18:43:47.751Z,99851.25
2023-04-11T18:46:16.506Z,99835.03
2023-04-11T18:48:46.220Z,99812.75
2023-04-11T18:51:13.589Z,99804.41
2023-04-11T18:53:41.645Z,99791.25
2023-04-11T18:56:09.188Z,99776.84
2023-04-11T18:58:44.953Z,99789.00
2023-04-11T19:01:16.511Z,99775.03
2023-04-11T19:03:46.452Z,99777.06
2023-04-11T19:06:14.399Z,99770.53
2023-04-11T19:08:41.763Z,99767.28
2023-04-11T19:11:09.123Z,99763.78
2023-04-11T19:13:36.735Z,99747.16
2023-04-11T19:16:04.245Z,99729.94
2023-04-11T19:18:31.621Z,99735.38
2023-04-11T19:21:00.647Z,99735.50
2023-04-11T19:23:28.171Z,99728.13
2023-04-11T19:25:55.619Z,99725.19
2023-04-11T19:28:23.003Z,99717.66
2023-04-11T19:30:50.394Z,99690.00
2023-04-11T19:33:18.053Z,99682.47
2023-04-11T19:35:45.535Z,99680.47
2023-04-11T19:38:14.283Z,99641.72
2023-04-11T19:40:41.650Z,99667.91
2023-04-11T19:43:09.025Z,99660.31
2023-04-11T19:45:36.525Z,99655.66
2023-04-11T19:48:14.394Z,99661.72
2023-04-11T19:50:41.791Z,99641.47
2023-04-11T19:53:09.173Z,99647.25
2023-04-11T19:55:38.924Z,99646.38
2023-04-11T19:58:06.297Z,99647.69
2023-04-11T20:00:36.091Z,99638.78
2023-04-11T20:03:05.736Z,99627.94
2023-04-11T20:05:33.924Z,99621.19
2023-04-11T20:08:01.437Z,99622.19
2023-04-11T20:10:29.143Z,99613.09
2023-04-11T20:12:58.009Z,99598.97
2023-04-11T20:15:25.911Z,99591.38
2023-04-11T20:17:53.306Z,99581.56
2023-04-11T20:20:21.911Z,99570.84
2023-04-11T20:22:49.283Z,99559.94
2023-04-11T20:25:16.677Z,99555.28
2023-04-11T20:27:44.475Z,99541.94
2023-04-11T20:30:15.382Z,99539.31
2023-04-11T20:32:43.571Z,99532.75
2023-04-11T20:35:12.773Z,99523.06
2023-04-11T20:37:41.217Z,99517.75
2023-04-11T20:40:12.347Z,99528.91
2023-04-11T20:42:41.179Z,99520.81
2023-04-11T20:45:11.271Z,99525.28
2023-04-11T20:47:40.358Z,99537.16
2023-04-11T20:50:10.220Z,99535.97
2023-04-11T20:52:38.642Z,99554.16
2023-04-11T20:55:06.781Z,99553.19
2023-04-11T20:57:34.383Z,99574.84
2023-04-11T21:00:07.474Z,99571.41
2023-04-11T21:02:35.447Z,99563.09
2023-04-11T21:05:06.109Z,99564.72
2023-04-11T21:07:33.546Z,99571.41
2023-04-11T21:10:01.555Z,99555.97
2023-04-11T21:12:28.981Z,99556.69
2023-04-11T21:14:58.353Z,99563.81
2023-04-11T21:17:25.802Z,99550.47
2023-04-11T21:19:53.206Z,99557.75
2023-04-11T21:22:21.917Z,99537.44
2023-04-11T21:24:49.376Z,99524.94
2023-04-11T21:27:16.824Z,99496.25
2023-04-11T21:29:44.216Z,99495.44
2023-04-11T21:32:11.568Z,99490.75
2023-04-11T21:34:38.915Z,99477.22
2023-04-11T21:37:06.316Z,99469.16
2023-04-11T21:39:35.025Z,99443.78
2023-04-11T21:42:02.444Z,99440.25
2023-04-11T21:44:29.814Z,99439.00
2023-04-11T21:46:57.250Z,99416.38
2023-04-11T21:49:25.191Z,99413.41
2023-04-11T21:51:52.707Z,99401.78
2023-04-11T21:54:20.070Z,99395.47
2023-04-11T21:56:51.046Z,99400.03
2023-04-11T21:59:18.698Z,99387.44
2023-04-11T22:01:47.760Z,99384.69
2023-04-11T22:04:17.506Z,99376.81
2023-04-11T22:06:46.768Z,99364.50
2023-04-11T22:09:14.677Z,99361.44
2023-04-11T22:11:42.474Z,99352.19
2023-04-11T22:14:15.908Z,99327.94
2023-04-11T22:16:48.724Z,99342.13
2023-04-11T22:19:17.789Z,99343.78
2023-04-11T22:21:48.461Z,99330.06
2023-04-11T22:24:15.896Z,99328.09
2023-04-11T22:26:48.600Z,99317.78
2023-04-11T22:29:18.200Z,99318.16
2023-04-11T22:31:47.671Z,99310.09
2023-04-11T22:34:15.177Z,99297.41
2023-04-11T22:36:42.552Z,99305.09
2023-04-11T22:39:10.286Z,99302.06
2023-04-11T22:41:39.362Z,99284.56
2023-04-11T22:44:06.932Z,99277.94
2023-04-11T22:46:39.136Z,99272.53
2023-04-11T22:49:09.932Z,99266.47
2023-04-11T22:51:37.899Z,99272.13
2023-04-11T22:54:05.417Z,99262.44
2023-04-11T22:56:32.929Z,99254.53
2023-04-11T22:59:00.300Z,99246.25
2023-04-11T23:01:28.104Z,99230.81
2023-04-11T23:03:57.390Z,99236.56
2023-04-11T23:06:25.017Z,99228.94
2023-04-11T23:08:53.840Z,99227.16
2023-04-11T23:11:21.768Z,99236.84
2023-04-11T23:13:49.126Z,99228.84
2023-04-11T23:16:16.478Z,99226.19
2023-04-11T23:18:43.871Z,99225.19
2023-04-11T23:21:14.319Z,99216.94
2023-04-11T23:23:41.713Z,99226.22
2023-04-11T23:26:09.187Z,99229.28
2023-04-11T23:28:36.557Z,99230.69
2023-04-11T23:31:04.191Z,99230.28
2023-04-11T23:33:31.595Z,99221.00
2023-04-11T23:35:59.004Z,99220.00
2023-04-11T23:38:27.740Z,99223.00
2023-04-11T23:40:55.338Z,99213.13
2023-04-11T23:43:24.027Z,99216.16
2023-04-11T23:45:52.100Z,99210.31
2023-04-11T23:48:19.579Z,99211.72
2023-04-11T23:50:47.146Z,99201.66
2023-04-11T23:53:15.893Z,99195.38
2023-04-11T23:55:45.945Z,99198.78
2023-04-11T23:58:15.494Z,99201.84
